Time;durP1;ratioP1;P1;durP2;ratioP2;P2;SDS_P1;SDS_P2;PMS_P1;PMS_P2;Temp;Humidity;BMP_temperature;BMP_pressure;BME280_temperature;BME280_humidity;BME280_pressure;Samples;Min_cycle;Max_cycle;Signal;HPM_P1;HPM_P2
2022/06/26 00:04:12;;;;;;;9.93;5.72;;;;;;;22.82;61.18;100302.52;3562165;81;99069;-79
2022/06/26 00:09:13;;;;;;;7.87;4.80;;;;;;;22.75;62.09;100308.44;3578623;81;98741;-79
2022/06/26 00:14:14;;;;;;;10.38;4.97;;;;;;;22.74;62.74;100311.70;3564274;81;98829;-78
2022/06/26 00:19:16;;;;;;;9.38;5.10;;;;;;;22.71;63.23;100317.61;3589571;81;25929;-79
2022/06/26 00:24:17;;;;;;;10.95;4.97;;;;;;;22.67;63.09;100314.80;3591558;80;98805;-78
2022/06/26 00:29:18;;;;;;;10.53;5.58;;;;;;;22.60;63.12;100315.84;3591768;81;99148;-79
2022/06/26 00:34:19;;;;;;;9.53;5.60;;;;;;;22.57;63.85;100313.19;3557063;80;99320;-79
2022/06/26 00:39:21;;;;;;;8.28;5.20;;;;;;;22.54;64.05;100312.09;3566473;81;99222;-79
2022/06/26 00:44:24;;;;;;;8.05;4.80;;;;;;;22.53;64.46;100313.94;3582149;80;98801;-79
2022/06/26 00:49:25;;;;;;;11.18;5.87;;;;;;;22.48;64.36;100306.13;3579851;81;25882;-79
2022/06/26 00:54:29;;;;;;;9.43;5.57;;;;;;;22.45;64.83;100312.03;3579888;80;99090;-79
2022/06/26 00:59:31;;;;;;;11.22;5.70;;;;;;;22.40;64.83;100321.02;3580730;80;99195;-79
2022/06/26 01:04:33;;;;;;;8.13;5.35;;;;;;;22.34;64.73;100319.28;3572537;81;99035;-78
2022/06/26 01:09:34;;;;;;;8.20;4.97;;;;;;;22.25;64.25;100323.43;3498359;83;97822;-79
2022/06/26 01:14:35;;;;;;;10.40;5.30;;;;;;;22.15;64.71;100322.60;3478912;83;99252;-79
2022/06/26 01:19:37;;;;;;;9.37;5.70;;;;;;;22.11;65.07;100317.73;3497505;83;25839;-79
2022/06/26 01:24:39;;;;;;;8.50;5.45;;;;;;;22.09;64.99;100325.04;3486893;82;98983;-79
2022/06/26 01:29:39;;;;;;;8.18;5.42;;;;;;;22.01;64.91;100325.16;3523363;82;98709;-78
2022/06/26 01:34:40;;;;;;;8.97;5.37;;;;;;;21.97;65.32;100325.27;3497241;82;98878;-79
2022/06/26 01:39:41;;;;;;;12.00;6.20;;;;;;;21.92;65.55;100328.67;3481341;83;98828;-79
2022/06/26 01:44:42;;;;;;;8.30;5.73;;;;;;;21.84;65.02;100330.16;3493350;83;99023;-79
2022/06/26 01:49:43;;;;;;;10.50;6.50;;;;;;;21.74;64.67;100329.16;3497341;82;25907;-78
2022/06/26 01:54:44;;;;;;;9.83;6.00;;;;;;;21.64;64.71;100333.84;3467440;83;98750;-79
2022/06/26 01:59:45;;;;;;;9.40;6.40;;;;;;;21.58;64.91;100340.50;3504231;82;98866;-78
2022/06/26 02:04:46;;;;;;;10.13;6.03;;;;;;;21.56;66.12;100332.55;3499792;82;98916;-78
2022/06/26 02:15:08;;;;;;;10.18;5.75;;;;;;;21.51;66.45;100331.72;3529907;81;98860;-78
2022/06/26 02:20:11;;;;;;;9.88;6.40;;;;;;;21.43;65.45;100338.81;3564851;81;98984;-78
2022/06/26 02:25:12;;;;;;;9.08;5.90;;;;;;;21.35;66.20;100345.87;3548169;81;98387;-78
2022/06/26 02:30:13;;;;;;;10.45;6.58;;;;;;;21.29;66.07;100348.30;3540342;79;99021;-78
2022/06/26 02:35:14;;;;;;;13.43;6.78;;;;;;;21.22;65.67;100351.34;3521480;81;98839;-78
2022/06/26 02:40:15;;;;;;;10.78;6.40;;;;;;;21.19;66.25;100350.22;3537476;81;98948;-78
2022/06/26 02:45:16;;;;;;;13.83;6.40;;;;;;;21.19;66.88;100356.45;3539915;81;99422;-79
2022/06/26 02:50:17;;;;;;;10.53;6.42;;;;;;;21.19;66.40;100362.82;3539258;81;98954;-78
2022/06/26 02:55:18;;;;;;;10.70;6.47;;;;;;;21.14;67.02;100367.58;3536516;81;98755;-79
2022/06/26 03:00:20;;;;;;;11.23;7.00;;;;;;;21.10;66.92;100362.70;3537625;81;98963;-79
2022/06/26 03:05:21;;;;;;;9.43;6.53;;;;;;;21.05;66.93;100363.30;3514389;81;98904;-78
2022/06/26 03:10:23;;;;;;;11.47;6.47;;;;;;;21.02;67.05;100371.78;3554577;81;99202;-78
2022/06/26 03:15:24;;;;;;;10.28;6.87;;;;;;;20.92;66.41;100373.70;3577292;80;99399;-79
2022/06/26 03:20:25;;;;;;;10.67;6.77;;;;;;;20.90;66.50;100367.78;3577683;81;99151;-79
2022/06/26 03:25:26;;;;;;;10.27;6.40;;;;;;;20.89;65.81;100372.42;3556939;80;98854;-79
2022/06/26 03:30:28;;;;;;;11.03;6.40;;;;;;;20.88;66.36;100380.62;3589230;80;99150;-78
2022/06/26 03:35:29;;;;;;;10.13;6.70;;;;;;;20.89;66.35;100382.21;3593680;80;98965;-79
2022/06/26 03:40:30;;;;;;;11.20;7.17;;;;;;;20.94;66.18;100387.25;3591356;80;98971;-79
2022/06/26 03:45:31;;;;;;;10.57;6.63;;;;;;;20.90;66.30;100386.57;3587687;80;98963;-78
2022/06/26 03:50:32;;;;;;;13.10;7.13;;;;;;;20.92;66.26;100389.09;3580278;81;98983;-79
2022/06/26 03:55:33;;;;;;;11.53;6.97;;;;;;;20.92;65.99;100390.48;3596490;80;98863;-78
2022/06/26 04:00:34;;;;;;;12.20;6.90;;;;;;;20.91;66.49;100379.73;3596119;81;99220;-78
2022/06/26 04:05:40;;;;;;;10.23;6.57;;;;;;;20.92;65.63;100386.29;3552762;81;98937;-79
2022/06/26 04:10:41;;;;;;;12.53;6.90;;;;;;;20.94;65.72;100389.44;3557221;80;99004;-77
2022/06/26 04:15:42;;;;;;;11.22;6.60;;;;;;;20.94;65.78;100388.05;3567917;80;98985;-78
2022/06/26 04:20:44;;;;;;;10.70;6.60;;;;;;;20.93;66.02;100394.08;3541648;82;99366;-78
2022/06/26 04:25:44;;;;;;;11.33;7.33;;;;;;;20.91;64.98;100399.32;3552402;80;98996;-78
2022/06/26 04:30:45;;;;;;;10.05;6.85;;;;;;;20.98;65.38;100397.72;3545712;82;32457;-78
2022/06/26 04:35:46;;;;;;;9.30;6.37;;;;;;;20.98;65.38;100397.72;3535950;82;98891;-79
2022/06/26 04:40:48;;;;;;;12.30;6.93;;;;;;;21.01;65.13;100400.41;3549436;81;98900;-79
2022/06/26 04:45:49;;;;;;;11.38;7.00;;;;;;;21.07;64.92;100407.61;3549142;82;99343;-79
2022/06/26 04:50:50;;;;;;;12.37;7.22;;;;;;;21.09;64.64;100401.73;3538338;82;99475;-80
2022/06/26 04:55:51;;;;;;;10.98;6.80;;;;;;;21.17;64.42;100411.48;3549820;80;98923;-79
2022/06/26 05:00:52;;;;;;;12.05;7.22;;;;;;;21.26;64.34;100415.77;3574138;80;30439;-80
2022/06/26 05:05:53;;;;;;;11.88;6.25;;;;;;;21.40;63.90;100423.71;3554635;82;98870;-79
2022/06/26 05:10:54;;;;;;;9.90;6.65;;;;;;;21.58;63.95;100427.33;3497713;82;99160;-80
2022/06/26 05:15:56;;;;;;;11.28;7.00;;;;;;;21.79;63.64;100431.61;3479686;81;98825;-76
2022/06/26 05:26:22;;;;;;;10.82;6.55;;;;;;;22.68;63.36;100431.39;3852331;74;31895;-77
2022/06/26 05:31:23;;;;;;;12.07;6.50;;;;;;;23.29;62.74;100441.20;3731162;78;26345;-79
2022/06/26 05:36:24;;;;;;;11.45;6.70;;;;;;;24.02;61.84;100449.96;3698382;77;99150;-77
2022/06/26 05:41:25;;;;;;;11.83;6.70;;;;;;;24.75;59.73;100452.27;3703731;78;99198;-77
2022/06/26 05:46:26;;;;;;;16.73;7.10;;;;;;;25.61;58.38;100447.74;3698198;78;99414;-78
2022/06/26 05:51:27;;;;;;;11.75;6.50;;;;;;;26.46;57.07;100452.74;3700398;78;99551;-78
2022/06/26 05:56:28;;;;;;;11.40;7.40;;;;;;;27.31;54.62;100448.87;3706116;78;99008;-78
2022/06/26 06:01:29;;;;;;;9.43;6.53;;;;;;;27.94;52.95;100451.59;3698080;77;99142;-78
2022/06/26 06:06:30;;;;;;;11.33;6.75;;;;;;;28.64;52.07;100457.19;3721032;78;99046;-78
2022/06/26 06:11:32;;;;;;;11.15;6.67;;;;;;;29.29;50.61;100456.23;3693692;78;98818;-78
2022/06/26 06:16:33;;;;;;;10.30;7.37;;;;;;;29.90;49.18;100460.24;3708282;78;98775;-78
2022/06/26 06:21:34;;;;;;;8.87;6.03;;;;;;;30.43;48.25;100463.06;3717387;77;98945;-78
2022/06/26 06:26:36;;;;;;;8.58;6.12;;;;;;;30.94;47.00;100467.57;3716222;78;98791;-78
2022/06/26 06:31:38;;;;;;;11.43;6.58;;;;;;;31.44;45.80;100469.77;3713593;77;98811;-78
2022/06/26 06:36:39;;;;;;;12.82;7.12;;;;;;;31.50;44.82;100474.80;3707163;78;98665;-78
2022/06/26 06:41:39;;;;;;;12.58;6.90;;;;;;;31.81;43.57;100476.70;3715077;77;99069;-78
2022/06/26 06:46:40;;;;;;;10.80;5.83;;;;;;;32.02;43.55;100477.14;3714341;78;99122;-79
2022/06/26 06:51:41;;;;;;;9.50;5.60;;;;;;;32.25;42.19;100482.25;3702702;77;99065;-78
2022/06/26 06:56:43;;;;;;;9.48;6.00;;;;;;;32.64;42.46;100484.23;3704016;78;99225;-78
2022/06/26 07:01:44;;;;;;;8.95;5.97;;;;;;;33.11;41.67;100487.17;3698478;78;98875;-78
2022/06/26 07:06:46;;;;;;;9.60;5.92;;;;;;;33.64;40.67;100491.39;3720139;78;26598;-78
2022/06/26 07:11:47;;;;;;;8.98;6.30;;;;;;;33.73;39.64;100494.66;3720486;78;99050;-78
2022/06/26 07:16:49;;;;;;;8.85;5.60;;;;;;;33.98;38.89;100495.45;3717543;78;98965;-78
2022/06/26 07:21:50;;;;;;;9.43;5.75;;;;;;;34.34;38.25;100488.28;3698054;78;98851;-78
2022/06/26 07:26:51;;;;;;;7.70;5.85;;;;;;;34.83;37.60;100480.46;3712104;78;98760;-78
2022/06/26 07:31:52;;;;;;;8.80;6.00;;;;;;;35.15;37.16;100479.78;3708626;77;98925;-78
2022/06/26 07:36:53;;;;;;;10.88;6.05;;;;;;;35.33;36.59;100475.36;3707855;77;26427;-78
2022/06/26 07:41:54;;;;;;;8.70;6.57;;;;;;;35.44;36.05;100473.73;3692061;78;99223;-78
2022/06/26 07:46:57;;;;;;;9.78;6.15;;;;;;;35.64;35.83;100473.86;3701418;78;98746;-79
2022/06/26 07:51:58;;;;;;;9.93;5.97;;;;;;;35.43;35.08;100475.84;3711337;78;98972;-78
2022/06/26 07:56:59;;;;;;;13.65;5.78;;;;;;;35.55;35.41;100471.44;3727645;78;98861;-79
2022/06/26 08:02:00;;;;;;;9.63;5.72;;;;;;;35.97;35.22;100468.18;3714794;78;99220;-77
2022/06/26 08:07:01;;;;;;;9.13;5.43;;;;;;;36.15;34.80;100468.70;3719391;78;26539;-77
2022/06/26 08:12:03;;;;;;;9.43;5.33;;;;;;;36.37;34.32;100471.91;3699062;78;98983;-78
2022/06/26 08:17:04;;;;;;;9.55;5.67;;;;;;;36.50;33.82;100474.73;3700563;78;99033;-78
2022/06/26 08:22:05;;;;;;;10.78;5.35;;;;;;;36.77;34.43;100471.16;3709960;77;98529;-78
2022/06/26 08:27:06;;;;;;;8.50;5.47;;;;;;;37.22;33.89;100468.06;3715959;78;98992;-77
2022/06/26 08:32:08;;;;;;;8.53;5.08;;;;;;;37.76;32.31;100472.25;3700011;78;98752;-78
2022/06/26 08:37:09;;;;;;;8.63;5.62;;;;;;;37.72;32.77;100475.39;3729773;78;25874;-77
2022/06/26 08:42:11;;;;;;;8.98;5.33;;;;;;;38.04;32.56;100474.38;3726177;78;98650;-78
2022/06/26 08:47:15;;;;;;;8.03;4.40;;;;;;;38.52;32.12;100472.05;3711661;78;98689;-77
2022/06/26 08:52:20;;;;;;;11.25;5.35;;;;;;;39.06;30.95;100473.06;3698832;78;98880;-77
2022/06/26 08:57:21;;;;;;;9.25;4.95;;;;;;;39.32;30.62;100470.60;3700140;78;99348;-78
2022/06/26 09:02:22;;;;;;;12.98;4.10;;;;;;;39.69;29.79;100469.81;3674907;78;98908;-78
2022/06/26 09:07:23;;;;;;;9.03;4.20;;;;;;;39.81;28.17;100476.73;3704273;78;26352;-78
2022/06/26 09:12:37;;;;;;;9.80;4.53;;;;;;;40.06;28.26;100472.53;3692454;78;98776;-78
2022/06/26 09:17:38;;;;;;;11.10;4.28;;;;;;;40.34;27.42;100473.70;3706606;78;98655;-77
2022/06/26 09:22:44;;;;;;;10.10;4.83;;;;;;;40.05;27.43;100471.76;3698020;78;99458;-78
2022/06/26 09:27:45;;;;;;;8.93;4.08;;;;;;;40.38;27.46;100467.63;3671023;78;99039;-78
2022/06/26 09:32:47;;;;;;;7.42;3.90;;;;;;;40.28;27.09;100470.27;3660183;79;98920;-77
2022/06/26 09:37:49;;;;;;;7.78;3.83;;;;;;;40.78;26.50;100470.52;3681786;78;99125;-77
2022/06/26 09:42:51;;;;;;;6.30;3.87;;;;;;;41.17;26.81;100466.80;3746151;76;97765;-77
2022/06/26 09:47:52;;;;;;;;;;;;;;;41.56;26.40;100462.36;3686758;79;98791;-80
2022/06/26 09:52:54;;;;;;;5.12;3.40;;;;;;;41.49;24.83;100464.65;3663927;79;85569;-78
2022/06/26 09:57:55;;;;;;;5.92;3.75;;;;;;;41.91;26.32;100463.97;3685400;78;98785;-77
2022/06/26 10:08:19;;;;;;;6.10;3.85;;;;;;;41.27;24.53;100461.25;3756601;77;98877;-76
2022/06/26 10:13:23;;;;;;;6.28;3.35;;;;;;;41.22;25.07;100452.81;3727364;77;98455;-79
2022/06/26 10:18:49;;;;;;;5.05;3.35;;;;;;;41.92;23.20;100456.04;3663827;77;98720;-78
2022/06/26 10:23:53;;;;;;;5.72;3.37;;;;;;;42.10;23.68;100450.33;3704027;77;98853;-77
2022/06/26 10:29:07;;;;;;;6.40;3.25;;;;;;;42.24;23.49;100454.44;3709745;77;99116;-79
2022/06/26 10:34:12;;;;;;;10.80;3.47;;;;;;;42.63;23.37;100449.79;3694758;77;98845;-79
2022/06/26 10:39:13;;;;;;;12.15;4.03;;;;;;;42.85;23.28;100456.59;3673082;77;99368;-78
2022/06/26 10:44:17;;;;;;;7.80;3.60;;;;;;;42.43;22.50;100456.01;3654388;79;99019;-79
2022/06/26 10:49:18;;;;;;;5.72;3.70;;;;;;;42.42;21.34;100448.02;3696793;78;26010;-79
2022/06/26 10:54:27;;;;;;;4.97;3.22;;;;;;;42.24;21.52;100459.55;3696695;77;98737;-78
2022/06/26 10:59:29;;;;;;;7.22;3.42;;;;;;;42.33;22.44;100453.75;3747446;77;98667;-80
2022/06/26 11:04:30;;;;;;;4.78;2.95;;;;;;;42.46;21.27;100457.72;3743561;77;99217;-80
2022/06/26 11:09:31;;;;;;;6.12;3.45;;;;;;;42.00;21.49;100453.84;3783652;77;98554;-79
2022/06/26 11:14:32;;;;;;;4.23;2.80;;;;;;;42.14;21.44;100455.01;3774124;76;99202;-79
2022/06/26 11:24:57;;;;;;;5.42;3.00;;;;;;;41.70;21.70;100444.02;3732244;77;98341;-77
2022/06/26 11:29:59;;;;;;;8.38;3.33;;;;;;;41.28;22.16;100436.78;3777779;76;97773;-78
2022/06/26 11:35:00;;;;;;;5.47;3.23;;;;;;;41.37;21.93;100444.05;3771843;76;99352;-78
2022/06/26 11:40:17;;;;;;;6.80;3.05;;;;;;;40.77;21.45;100445.23;3757607;76;98125;-79
2022/06/26 11:45:25;;;;;;;3.17;2.58;;;;;;;40.95;20.95;100440.28;3736100;77;99330;-79
2022/06/26 11:50:31;;;;;;;5.00;2.90;;;;;;;41.19;22.26;100435.98;3750828;76;99639;-78
2022/06/26 11:55:34;;;;;;;5.08;3.52;;;;;;;41.36;21.27;100431.69;3740571;76;98359;-79
2022/06/26 12:00:35;;;;;;;;;;;;;;;41.23;20.77;100432.67;3753211;77;98568;-78
2022/06/26 12:05:36;;;;;;;9.53;3.60;;;;;;;40.67;21.38;100434.90;3759889;76;84517;-79
2022/06/26 12:10:37;;;;;;;6.28;3.50;;;;;;;40.25;22.25;100423.84;3776159;76;99289;-79
2022/06/26 12:15:38;;;;;;;6.15;3.80;;;;;;;40.32;22.17;100428.82;3752045;77;99317;-80
2022/06/26 12:20:41;;;;;;;5.95;3.50;;;;;;;40.55;21.51;100433.16;3751552;77;99212;-79
2022/06/26 12:25:44;;;;;;;;;;;;;;;40.55;21.70;100428.83;3758116;75;98761;-81
2022/06/26 12:30:45;;;;;;;7.70;3.57;;;;;;;40.33;20.96;100429.69;3741246;77;25771;-79
2022/06/26 12:35:47;;;;;;;5.83;3.20;;;;;;;40.08;21.22;100422.25;3749289;76;99055;-79
2022/06/26 12:40:48;;;;;;;6.15;3.10;;;;;;;39.97;21.93;100422.67;3739384;77;99435;-79
2022/06/26 12:45:49;;;;;;;8.60;3.40;;;;;;;40.35;22.71;100417.55;3743210;77;99478;-78
2022/06/26 12:50:50;;;;;;;5.03;3.80;;;;;;;40.43;22.01;100421.92;3743089;77;98778;-79
2022/06/26 12:55:51;;;;;;;5.30;3.17;;;;;;;40.22;21.39;100420.70;3749834;77;98817;-78
2022/06/26 13:00:52;;;;;;;7.10;3.80;;;;;;;39.90;20.85;100421.38;3643646;79;25967;-78
2022/06/26 13:05:54;;;;;;;10.05;3.85;;;;;;;39.78;21.37;100426.69;3650199;79;98860;-84
2022/06/26 13:11:22;;;;;;;5.40;3.40;;;;;;;40.42;21.54;100424.72;3584321;81;99465;-79
2022/06/26 13:15:58;;;;;;;7.33;3.52;;;;;;;40.05;21.04;100415.53;3594160;80;99278;-78
2022/06/26 13:20:59;;;;;;;7.53;3.85;;;;;;;39.88;21.38;100405.31;3630679;79;99292;-79
2022/06/26 13:26:00;;;;;;;5.67;3.70;;;;;;;39.71;21.13;100413.82;3550214;79;99515;-78
2022/06/26 13:31:01;;;;;;;4.40;3.10;;;;;;;39.88;21.45;100418.98;3618731;80;26427;-79
2022/06/26 13:36:03;;;;;;;8.23;3.40;;;;;;;39.69;21.25;100412.84;3610651;79;98605;-82
2022/06/26 13:41:06;;;;;;;4.58;3.42;;;;;;;39.60;21.09;100412.77;3615129;80;99328;-81
2022/06/26 13:46:07;;;;;;;6.05;3.42;;;;;;;39.62;20.38;100412.94;3565062;80;98757;-79
2022/06/26 13:51:10;;;;;;;5.15;3.65;;;;;;;39.45;20.79;100414.22;3571590;80;99324;-79
2022/06/26 13:56:11;;;;;;;5.20;3.57;;;;;;;39.30;21.55;100414.27;3535803;81;99264;-81
2022/06/26 14:01:12;;;;;;;4.33;3.15;;;;;;;39.24;21.87;100415.77;3487736;82;25844;-81
2022/06/26 14:06:13;;;;;;;6.47;3.40;;;;;;;39.43;22.37;100401.08;3495706;80;99152;-79
2022/06/26 14:11:14;;;;;;;4.47;3.30;;;;;;;39.27;21.54;100390.11;3547582;82;99179;-78
2022/06/26 14:16:16;;;;;;;7.85;3.77;;;;;;;38.96;21.66;100411.64;3554827;80;98798;-80
2022/06/26 14:21:18;;;;;;;5.92;3.40;;;;;;;38.50;21.80;100420.83;3591014;81;98057;-79
2022/06/26 14:26:19;;;;;;;5.95;3.62;;;;;;;38.77;22.99;100417.72;3615064;80;99220;-78
2022/06/26 14:31:21;;;;;;;7.85;3.85;;;;;;;38.79;22.42;100411.41;3623605;80;26523;-80
2022/06/26 14:36:23;;;;;;;6.08;3.65;;;;;;;37.73;22.64;100427.43;3714651;78;98680;-79
2022/06/26 14:41:24;;;;;;;6.70;3.72;;;;;;;37.63;23.26;100418.45;3711638;77;99093;-79
2022/06/26 14:46:26;;;;;;;5.58;3.15;;;;;;;37.06;23.02;100423.31;3717212;78;99246;-80
2022/06/26 14:51:31;;;;;;;5.07;3.23;;;;;;;36.91;23.56;100418.11;3728653;77;98515;-79
2022/06/26 14:56:31;;;;;;;5.97;3.40;;;;;;;36.90;25.11;100409.41;3713541;78;99135;-79
2022/06/26 15:01:32;;;;;;;6.62;3.67;;;;;;;36.89;24.12;100410.73;3713422;78;98983;-79
2022/06/26 15:06:34;;;;;;;5.33;3.85;;;;;;;36.70;24.37;100411.59;3727692;78;97907;-77
2022/06/26 15:11:35;;;;;;;5.35;3.22;;;;;;;36.55;24.25;100407.13;3712985;78;98714;-78
2022/06/26 15:16:36;;;;;;;6.33;3.87;;;;;;;36.24;23.58;100402.36;3729875;77;98854;-79
2022/06/26 15:21:37;;;;;;;5.62;3.30;;;;;;;35.92;23.64;100391.06;3723697;77;98910;-79
2022/06/26 15:26:38;;;;;;;6.78;3.80;;;;;;;35.98;24.87;100399.52;3719214;78;99558;-78
2022/06/26 15:31:39;;;;;;;6.10;3.20;;;;;;;36.03;24.15;100396.55;3713416;78;98793;-78
2022/06/26 15:36:40;;;;;;;5.80;3.52;;;;;;;35.99;24.33;100391.03;3717786;78;97598;-78
2022/06/26 15:41:41;;;;;;;6.25;3.60;;;;;;;35.91;24.11;100395.22;3711633;78;98530;-79
2022/06/26 15:46:42;;;;;;;4.58;3.27;;;;;;;35.55;24.09;100386.98;3714052;77;98919;-78
2022/06/26 15:51:46;;;;;;;5.90;3.60;;;;;;;35.23;24.61;100381.19;3698112;78;98991;-77
2022/06/26 15:56:46;;;;;;;5.70;3.83;;;;;;;35.08;25.33;100383.16;3720160;78;99079;-79
2022/06/26 16:01:48;;;;;;;9.40;5.10;;;;;;;34.69;25.16;100383.67;3719167;77;99296;-77
2022/06/26 16:06:49;;;;;;;6.45;3.90;;;;;;;34.27;25.20;100382.50;3712040;77;26570;-77
2022/06/26 16:11:50;;;;;;;7.12;4.33;;;;;;;34.02;25.56;100383.09;3714424;78;98789;-77
2022/06/26 16:16:51;;;;;;;5.95;3.80;;;;;;;33.81;25.91;100387.14;3716294;77;99227;-77
2022/06/26 16:27:12;;;;;;;7.42;3.90;;;;;;;33.47;26.58;100380.27;3700407;78;98948;-78
2022/06/26 16:32:13;;;;;;;7.87;4.37;;;;;;;33.12;27.38;100384.61;3685350;79;98018;-77
2022/06/26 16:37:14;;;;;;;6.85;3.83;;;;;;;32.82;27.45;100385.29;3664535;80;25794;-77
2022/06/26 16:42:15;;;;;;;6.75;3.95;;;;;;;32.69;27.98;100387.19;3649167;79;98855;-77
2022/06/26 16:47:16;;;;;;;7.62;4.00;;;;;;;32.44;28.14;100386.97;3650019;79;99143;-77
2022/06/26 16:52:18;;;;;;;8.00;3.95;;;;;;;32.30;28.39;100395.23;3640139;79;98894;-77
2022/06/26 16:57:19;;;;;;;10.35;4.33;;;;;;;32.14;28.60;100386.86;3658962;79;99138;-78
2022/06/26 17:02:20;;;;;;;8.35;3.90;;;;;;;31.94;28.89;100382.19;3645720;79;99330;-77
2022/06/26 17:07:21;;;;;;;9.03;4.42;;;;;;;31.78;29.53;100383.83;3641944;79;35620;-78
2022/06/26 17:12:23;;;;;;;8.80;4.15;;;;;;;31.66;30.05;100385.11;3643668;78;98910;-77
2022/06/26 17:17:24;;;;;;;10.13;4.70;;;;;;;31.54;29.91;100384.27;3649290;79;98630;-78
2022/06/26 17:22:25;;;;;;;6.70;4.30;;;;;;;31.34;30.09;100382.49;3671695;79;98726;-76
2022/06/26 17:27:27;;;;;;;10.70;4.55;;;;;;;31.16;30.32;100385.11;3677635;78;98805;-77
2022/06/26 17:32:28;;;;;;;7.55;4.28;;;;;;;31.02;30.58;100386.15;3721987;77;99370;-78
2022/06/26 17:37:28;;;;;;;6.40;3.85;;;;;;;30.89;30.79;100391.59;3717023;78;34882;-77
2022/06/26 17:42:30;;;;;;;9.38;4.00;;;;;;;30.75;31.10;100396.25;3705680;78;99164;-77
2022/06/26 17:47:49;;;;;;;7.45;4.33;;;;;;;30.64;31.76;100397.64;3718174;78;99023;-78
2022/06/26 17:52:55;;;;;;;6.67;4.17;;;;;;;30.51;31.97;100393.08;3705244;78;98888;-77
2022/06/26 17:57:56;;;;;;;7.42;4.12;;;;;;;30.40;32.61;100393.73;3716934;78;99199;-77
2022/06/26 18:03:03;;;;;;;9.78;4.03;;;;;;;30.25;32.90;100401.70;3717728;78;98918;-76
2022/06/26 18:08:04;;;;;;;7.03;3.92;;;;;;;30.03;33.53;100397.34;3738595;78;98827;-77
2022/06/26 18:13:07;;;;;;;8.28;4.15;;;;;;;29.88;34.06;100393.92;3724179;77;98869;-76
2022/06/26 18:18:08;;;;;;;7.55;3.83;;;;;;;29.73;34.86;100406.89;3738776;77;98599;-78
2022/06/26 18:23:11;;;;;;;7.20;3.87;;;;;;;29.58;35.42;100404.88;3708856;77;98756;-78
2022/06/26 18:28:12;;;;;;;9.73;4.35;;;;;;;29.44;35.92;100407.23;3649386;79;97975;-78
2022/06/26 18:33:14;;;;;;;6.85;3.83;;;;;;;29.30;36.36;100405.33;3738128;77;99274;-78
2022/06/26 18:38:15;;;;;;;6.65;4.00;;;;;;;29.21;36.64;100410.43;3692521;78;98486;-78
2022/06/26 18:43:16;;;;;;;8.85;4.60;;;;;;;29.10;37.00;100419.61;3744309;77;98507;-77
2022/06/26 18:48:18;;;;;;;7.20;4.08;;;;;;;28.97;37.30;100415.64;3732548;77;98618;-78
2022/06/26 18:53:19;;;;;;;7.55;3.83;;;;;;;28.82;37.58;100433.41;3726523;77;98889;-78
2022/06/26 18:58:21;;;;;;;9.63;4.35;;;;;;;28.68;37.70;100439.34;3682082;79;98762;-77
2022/06/26 19:03:22;;;;;;;7.53;4.20;;;;;;;28.57;38.27;100442.06;3651805;79;98773;-77
2022/06/26 19:08:24;;;;;;;6.20;4.05;;;;;;;28.39;38.44;100443.78;3651825;79;98828;-77
2022/06/26 19:18:44;;;;;;;8.13;4.35;;;;;;;28.14;39.22;100455.05;3723015;76;98827;-77
2022/06/26 19:23:45;;;;;;;10.08;4.75;;;;;;;27.96;39.56;100459.59;3717987;78;99274;-77
2022/06/26 19:28:46;;;;;;;11.75;4.50;;;;;;;27.85;39.98;100468.69;3713650;77;98966;-78
2022/06/26 19:33:50;;;;;;;7.78;4.00;;;;;;;27.75;40.50;100469.30;3714223;78;98613;-78
2022/06/26 19:38:50;;;;;;;8.33;4.42;;;;;;;27.62;40.96;100483.02;3743817;77;98880;-76
2022/06/26 19:43:51;;;;;;;10.23;4.55;;;;;;;27.50;41.10;100488.34;3714593;78;98855;-76
2022/06/26 19:48:52;;;;;;;8.25;4.53;;;;;;;27.39;41.52;100493.81;3716723;78;35190;-76
2022/06/26 19:53:56;;;;;;;13.62;4.55;;;;;;;27.26;41.74;100495.56;3712364;78;98734;-77
2022/06/26 19:58:57;;;;;;;8.97;4.47;;;;;;;27.11;42.33;100497.59;3678108;77;98543;-77
2022/06/26 20:04:04;;;;;;;10.53;5.03;;;;;;;27.00;42.83;100509.32;3713217;78;98861;-78
2022/06/26 20:09:01;;;;;;;7.37;4.08;;;;;;;26.87;42.93;100508.84;3717338;78;99330;-78
2022/06/26 20:14:02;;;;;;;8.95;4.05;;;;;;;26.71;43.17;100515.72;3705644;78;98599;-77
2022/06/26 20:19:04;;;;;;;8.73;4.53;;;;;;;26.60;43.44;100521.81;3698399;78;35310;-77
2022/06/26 20:24:06;;;;;;;6.53;3.90;;;;;;;26.50;43.77;100517.47;3684819;78;98668;-77
2022/06/26 20:29:07;;;;;;;7.67;4.45;;;;;;;26.38;43.95;100520.70;3695197;78;98828;-78
2022/06/26 20:34:09;;;;;;;9.78;4.78;;;;;;;26.27;44.20;100523.28;3673233;78;98727;-78
2022/06/26 20:39:10;;;;;;;8.90;4.12;;;;;;;26.19;44.58;100522.73;3691110;79;98861;-78
2022/06/26 20:44:11;;;;;;;8.28;4.25;;;;;;;26.11;44.55;100525.77;3682288;76;99153;-77
2022/06/26 20:49:12;;;;;;;7.80;3.72;;;;;;;26.00;45.03;100522.06;3659649;79;35457;-77
2022/06/26 20:54:13;;;;;;;8.53;4.37;;;;;;;25.89;45.22;100526.02;3659047;79;98625;-77
2022/06/26 20:59:15;;;;;;;8.38;4.17;;;;;;;25.78;45.37;100527.83;3712253;79;99107;-77
2022/06/26 21:04:16;;;;;;;7.15;4.17;;;;;;;25.69;45.64;100540.55;3689985;78;98651;-77
2022/06/26 21:09:17;;;;;;;7.92;3.33;;;;;;;25.59;46.04;100543.26;3682512;79;98750;-77
2022/06/26 21:14:18;;;;;;;9.10;4.72;;;;;;;25.55;46.50;100542.67;3677806;78;98450;-77
2022/06/26 21:19:21;;;;;;;9.43;4.00;;;;;;;25.52;46.76;100545.81;3703065;78;34975;-77
2022/06/26 21:24:23;;;;;;;6.83;4.08;;;;;;;25.47;47.32;100552.09;3679337;78;98741;-77
2022/06/26 21:29:24;;;;;;;6.95;4.03;;;;;;;25.37;47.06;100549.15;3703136;78;99110;-77
2022/06/26 21:34:26;;;;;;;10.32;4.17;;;;;;;25.27;47.45;100544.00;3715343;78;98815;-76
2022/06/26 21:39:27;;;;;;;8.80;4.53;;;;;;;25.20;47.81;100550.74;3720036;78;99392;-78
2022/06/26 21:44:28;;;;;;;8.28;4.00;;;;;;;25.14;48.11;100545.59;3671068;78;98938;-78
2022/06/26 21:49:29;;;;;;;9.08;4.65;;;;;;;25.04;48.13;100548.27;3703255;78;34780;-78
2022/06/26 21:54:30;;;;;;;9.65;4.47;;;;;;;25.00;48.51;100555.30;3711069;78;98772;-78
2022/06/26 21:59:31;;;;;;;10.08;4.10;;;;;;;25.00;49.67;100555.30;3721759;78;97884;-78
2022/06/26 22:04:32;;;;;;;9.53;4.87;;;;;;;24.95;49.62;100546.11;3719942;77;99024;-78
2022/06/26 22:09:34;;;;;;;9.08;4.12;;;;;;;24.90;49.61;100550.96;3647108;79;99249;-78
2022/06/26 22:14:35;;;;;;;7.33;4.00;;;;;;;24.77;49.76;100546.91;3707446;78;99255;-78
2022/06/26 22:19:36;;;;;;;7.08;3.87;;;;;;;24.73;50.10;100546.92;3718337;78;34755;-78
2022/06/26 22:24:37;;;;;;;6.05;3.87;;;;;;;24.68;50.72;100548.95;3712205;78;98431;-78
2022/06/26 22:29:38;;;;;;;8.93;4.67;;;;;;;24.60;51.06;100544.88;3712151;76;99007;-78
2022/06/26 22:34:39;;;;;;;7.78;4.60;;;;;;;24.59;51.47;100540.50;3659582;79;98529;-77
2022/06/26 22:39:40;;;;;;;8.30;4.08;;;;;;;24.54;51.49;100536.88;3685401;79;98811;-77
2022/06/26 22:44:41;;;;;;;10.80;4.62;;;;;;;24.46;51.81;100542.03;3662432;79;98893;-77
2022/06/26 22:49:43;;;;;;;7.47;4.45;;;;;;;24.41;52.48;100538.44;3680933;79;25842;-77
2022/06/26 22:54:45;;;;;;;6.83;4.10;;;;;;;24.39;52.80;100523.27;3685070;79;98756;-77
2022/06/26 22:59:46;;;;;;;8.30;4.12;;;;;;;24.32;53.21;100523.59;3677183;78;98615;-77
2022/06/26 23:04:47;;;;;;;9.40;4.50;;;;;;;24.25;53.61;100526.72;3682014;78;98785;-77
2022/06/26 23:09:48;;;;;;;7.65;4.10;;;;;;;24.18;53.78;100520.77;3692059;79;98887;-77
2022/06/26 23:14:49;;;;;;;9.68;4.50;;;;;;;24.14;54.55;100513.09;3668075;78;98342;-77
2022/06/26 23:19:50;;;;;;;9.05;4.60;;;;;;;24.12;54.85;100510.59;3621697;80;98792;-78
2022/06/26 23:24:51;;;;;;;9.93;4.55;;;;;;;24.08;55.03;100514.97;3632197;79;97659;-77
2022/06/26 23:29:52;;;;;;;8.60;4.17;;;;;;;24.02;55.10;100512.62;3666442;78;99020;-78
2022/06/26 23:34:53;;;;;;;8.33;4.62;;;;;;;23.95;55.07;100507.30;3658647;78;98810;-78
2022/06/26 23:39:54;;;;;;;8.98;4.10;;;;;;;23.90;55.61;100506.51;3666688;79;99188;-78
2022/06/26 23:44:55;;;;;;;7.62;4.37;;;;;;;23.78;55.34;100500.98;3654166;79;98597;-78
2022/06/26 23:49:58;;;;;;;11.13;5.40;;;;;;;23.76;55.65;100500.03;3663710;79;98956;-78
2022/06/26 23:54:59;;;;;;;9.13;4.78;;;;;;;23.70;56.07;100502.53;3715735;78;98484;-77
